Birsk, Russia
Current Conditions -  °F | °C
As of 11:30 AM on Monday 26 Jan 2015 (Local Time) from UWUU Reporting Station
Clear Clear  
Wind Chill: -13°   Ceiling: Unl
Heat Index:   Visibility: 6mi
Dew Point: -6°   Wind: 7mph
Humidity: 78%   Direction: 190°S
Pressure: 30.8"   Gusts: NA
Location:  55.42°N, 55.54°E
Report Text: UWUU 260630Z 19003MPS 140V210 CAVOK M18/M21 Q1043 140///60NOSIG RMK QFE771/1029
Loading
Personal Weather Stations






























Interactive Weather Map New forecast layout! Learn more

10-Day Weather Forecast

Advertisements
Track Severe Weather on mobile